Time;durP1;ratioP1;P1;durP2;ratioP2;P2;SDS_P1;SDS_P2;PMS_P1;PMS_P2;Temp;Humidity;BMP_temperature;BMP_pressure;BME280_temperature;BME280_humidity;BME280_pressure;Samples;Min_cycle;Max_cycle;Signal;HPM_P1;HPM_P2
2022/11/02 00:01:46;;;;;;;12.50;4.38;;;;;;;4.41;63.52;99421.94;4918615;29;19918;-86
2022/11/02 00:04:12;;;;;;;12.48;4.13;;;;;;;4.28;63.67;99435.19;4902529;29;20047;-87
2022/11/02 00:06:40;;;;;;;8.10;4.00;;;;;;;4.19;64.39;99432.19;4883014;29;20561;-94
2022/11/02 00:09:06;;;;;;;;;;;;;;;4.24;64.32;99453.84;4914977;29;20088;-88
2022/11/02 00:11:33;;;;;;;7.82;4.18;;;;;;;4.32;64.04;99444.38;4898649;29;19970;-87
2022/11/02 00:13:59;;;;;;;11.63;4.13;;;;;;;4.32;63.83;99417.34;4883446;29;20133;-87
2022/11/02 00:16:25;;;;;;;11.70;4.22;;;;;;;4.19;63.80;99424.88;4911696;29;20048;-87
2022/11/02 00:18:55;;;;;;;10.23;4.10;;;;;;;4.30;64.03;99427.59;4933390;29;20127;-87
2022/11/02 00:21:24;;;;;;;10.38;3.63;;;;;;;4.45;63.55;99431.13;4928757;29;20504;-87
2022/11/02 00:23:50;;;;;;;12.18;4.13;;;;;;;4.25;63.71;99417.59;4935860;29;20071;-88
2022/11/02 00:26:17;;;;;;;7.50;3.95;;;;;;;4.33;63.89;99419.75;4954190;29;20504;-94
2022/11/02 00:28:44;;;;;;;9.65;4.28;;;;;;;4.37;63.65;99401.06;4937054;29;20050;-95
2022/11/02 00:31:10;;;;;;;7.85;3.70;;;;;;;4.43;63.27;99400.81;4936793;29;20102;-93
2022/11/02 00:33:36;;;;;;;14.68;4.45;;;;;;;4.68;63.52;99437.09;4920730;29;20047;-87
2022/11/02 00:36:04;;;;;;;12.40;4.03;;;;;;;4.59;62.99;99425.19;4952800;29;20047;-87
2022/11/02 00:38:31;;;;;;;10.02;4.35;;;;;;;4.60;63.26;99410.56;4952726;29;20440;-88
2022/11/02 00:40:57;;;;;;;12.05;4.60;;;;;;;4.55;62.76;99411.38;4953965;29;20051;-89
2022/11/02 00:43:23;;;;;;;9.60;4.38;;;;;;;4.63;63.02;99421.66;4942481;29;20063;-94
2022/11/02 00:45:49;;;;;;;13.50;4.55;;;;;;;4.78;63.22;99442.53;4939727;29;20417;-94
2022/11/02 00:48:15;;;;;;;10.02;3.83;;;;;;;4.70;62.94;99421.38;4922976;29;20047;-94
2022/11/02 00:50:41;;;;;;;9.57;4.43;;;;;;;4.35;63.00;99387.84;4921785;29;20556;-87
2022/11/02 00:53:08;;;;;;;16.77;4.38;;;;;;;4.62;63.50;99411.13;4921929;29;20040;-87
2022/11/02 00:55:34;;;;;;;13.68;4.30;;;;;;;4.78;62.91;99428.97;4938544;29;20067;-88
2022/11/02 00:58:02;;;;;;;9.85;4.32;;;;;;;4.77;62.97;99430.06;4907276;29;20058;-87
2022/11/02 01:00:28;;;;;;;10.18;4.22;;;;;;;4.55;62.60;99400.56;4922748;29;20044;-87
2022/11/02 01:02:59;;;;;;;11.00;4.47;;;;;;;4.77;62.48;99415.69;4921501;29;20048;-90
2022/11/02 01:05:26;;;;;;;13.27;4.80;;;;;;;4.69;62.67;99408.94;4921707;29;20050;-88
2022/11/02 01:07:52;;;;;;;11.13;4.25;;;;;;;4.60;62.36;99397.88;4940920;29;20048;-87
2022/11/02 01:10:18;;;;;;;7.95;4.03;;;;;;;4.48;63.05;99398.13;4923927;29;20050;-92
2022/11/02 01:12:46;;;;;;;9.63;4.15;;;;;;;4.63;63.57;99423.56;4923453;29;20039;-88
2022/11/02 01:15:12;;;;;;;14.52;4.82;;;;;;;4.42;63.19;99374.03;4925265;29;20453;-88
2022/11/02 01:17:38;;;;;;;10.63;4.50;;;;;;;4.79;62.89;99421.66;4924403;29;20065;-88
2022/11/02 01:20:05;;;;;;;13.10;4.78;;;;;;;4.71;62.76;99399.47;4925088;29;20040;-88
2022/11/02 01:22:31;;;;;;;;;;;;;;;4.85;62.84;99418.69;4922731;29;20099;-92
2022/11/02 01:24:58;;;;;;;11.57;4.60;;;;;;;4.77;62.53;99407.56;4939408;29;19923;-88
2022/11/02 01:27:25;;;;;;;16.38;4.97;;;;;;;4.88;61.92;99399.16;4940110;29;20374;-93
2022/11/02 01:29:51;;;;;;;12.38;4.57;;;;;;;4.55;61.70;99368.06;4939498;29;20176;-89
2022/11/02 01:32:18;;;;;;;16.00;4.35;;;;;;;4.74;62.04;99403.53;4939489;29;20138;-94
2022/11/02 01:34:44;;;;;;;9.75;4.57;;;;;;;4.54;62.12;99381.88;4921358;29;20074;-94
2022/11/02 01:37:10;;;;;;;10.45;4.28;;;;;;;4.73;62.59;99415.44;4922229;29;20044;-92
2022/11/02 01:39:37;;;;;;;8.43;4.70;;;;;;;4.72;62.37;99416.53;4936651;29;20047;-89
2022/11/02 01:42:19;;;;;;;18.33;5.03;;;;;;;4.54;62.36;99381.88;4937588;29;20123;-87
2022/11/02 01:44:46;;;;;;;10.07;5.00;;;;;;;4.52;62.53;99378.63;4937537;29;20547;-87
2022/11/02 01:47:18;;;;;;;15.70;4.70;;;;;;;4.55;62.68;99386.22;4920358;29;20056;-87
2022/11/02 01:49:48;;;;;;;19.83;4.85;;;;;;;4.50;62.95;99388.91;4946619;29;20055;-95
2022/11/02 01:52:23;;;;;;;13.73;4.65;;;;;;;4.51;63.15;99390.56;4956343;29;20047;-88
2022/11/02 01:54:59;;;;;;;16.08;5.00;;;;;;;4.48;62.74;99381.88;4955315;28;20043;-88
2022/11/02 01:57:27;;;;;;;9.15;5.05;;;;;;;4.55;62.36;99369.97;4923823;29;20035;-88
2022/11/02 02:00:04;;;;;;;11.55;4.97;;;;;;;4.74;62.69;99405.44;4956558;29;20122;-87
2022/11/02 02:03:05;;;;;;;14.25;4.50;;;;;;;4.76;62.34;99400.53;4956307;29;20039;-88
2022/11/02 02:05:35;;;;;;;11.18;5.00;;;;;;;4.62;62.28;99390.25;4922756;29;20048;-87
2022/11/02 02:08:02;;;;;;;10.27;4.65;;;;;;;4.69;62.91;99404.31;4904617;29;20174;-88
2022/11/02 02:10:30;;;;;;;14.68;5.50;;;;;;;4.38;63.55;99365.66;4920395;29;20498;-87
2022/11/02 02:12:56;;;;;;;14.68;5.65;;;;;;;4.54;62.40;99390.81;4920195;29;20130;-88
2022/11/02 02:15:27;;;;;;;12.30;5.23;;;;;;;4.48;62.32;99368.34;4940985;29;20047;-88
2022/11/02 02:18:11;;;;;;;12.90;4.95;;;;;;;4.56;62.64;99391.34;4939215;29;20353;-87
2022/11/02 02:21:09;;;;;;;17.38;5.30;;;;;;;4.46;62.92;99380.53;4955674;29;20078;-87
2022/11/02 02:24:14;;;;;;;14.35;4.78;;;;;;;4.71;63.15;99407.59;4948423;29;20059;-88
2022/11/02 02:26:58;;;;;;;9.30;5.22;;;;;;;4.74;63.39;99408.94;4898725;29;20110;-87
2022/11/02 02:29:37;;;;;;;15.48;5.82;;;;;;;4.68;63.48;99400.00;4919993;29;20552;-88
2022/11/02 02:32:42;;;;;;;16.40;5.13;;;;;;;4.76;62.72;99400.53;4903195;29;20063;-87
2022/11/02 02:35:14;;;;;;;15.45;4.80;;;;;;;4.64;62.64;99385.41;4905147;29;20070;-95
2022/11/02 02:37:51;;;;;;;13.05;4.90;;;;;;;4.68;62.72;99391.88;4919886;29;20051;-95
2022/11/02 02:40:39;;;;;;;11.98;4.78;;;;;;;4.65;62.31;99380.78;4919830;29;20103;-87
2022/11/02 02:43:08;;;;;;;13.73;4.93;;;;;;;4.80;62.92;99413.28;4936607;29;20046;-87
2022/11/02 02:45:43;;;;;;;14.00;6.05;;;;;;;4.81;62.67;99405.97;4932753;29;20505;-87
2022/11/02 02:48:17;;;;;;;12.02;5.05;;;;;;;4.45;63.33;99378.91;4922617;29;20074;-87
2022/11/02 02:50:52;;;;;;;21.20;6.45;;;;;;;4.65;64.01;99400.56;4938358;29;20054;-87
2022/11/02 02:53:26;;;;;;;12.88;5.57;;;;;;;4.53;64.43;99385.66;4955500;29;20077;-92
2022/11/02 02:55:53;;;;;;;14.32;5.38;;;;;;;4.66;63.58;99394.03;4936836;29;20107;-88
2022/11/02 02:58:37;;;;;;;20.63;5.13;;;;;;;4.77;63.83;99419.25;4935841;29;20044;-88
2022/11/02 03:01:05;;;;;;;16.23;5.30;;;;;;;4.78;63.75;99412.72;4934970;29;20040;-88
2022/11/02 03:03:33;;;;;;;12.82;5.72;;;;;;;4.61;63.73;99371.59;4936265;29;20098;-87
2022/11/02 03:06:08;;;;;;;10.57;5.38;;;;;;;4.79;64.02;99413.53;4918564;29;20576;-89
2022/11/02 03:08:38;;;;;;;;;;;;;;;4.88;63.35;99412.72;4919773;29;20505;-86
2022/11/02 03:11:13;;;;;;;12.05;5.57;;;;;;;4.79;64.29;99413.53;4935922;29;19930;-89
2022/11/02 03:14:02;;;;;;;18.80;4.80;;;;;;;4.73;64.03;99415.44;4921651;29;20054;-88
2022/11/02 03:16:43;;;;;;;12.23;5.05;;;;;;;4.73;64.25;99404.59;4919024;29;20405;-88
2022/11/02 03:19:35;;;;;;;11.82;5.18;;;;;;;4.87;64.05;99415.72;4934792;29;20040;-88
2022/11/02 03:22:11;;;;;;;19.77;4.97;;;;;;;4.83;63.99;99407.28;4935861;29;20055;-88
2022/11/02 03:24:53;;;;;;;17.17;5.30;;;;;;;4.69;63.25;99389.97;4919680;29;20059;-95
2022/11/02 03:27:43;;;;;;;13.57;5.13;;;;;;;4.83;63.40;99415.41;4954425;29;20043;-93
2022/11/02 03:30:32;;;;;;;17.05;5.00;;;;;;;4.77;63.27;99411.13;4938121;29;20043;-95
2022/11/02 03:33:15;;;;;;;19.20;5.13;;;;;;;4.77;63.22;99407.56;4953913;29;20078;-88
2022/11/02 03:35:55;;;;;;;15.98;5.18;;;;;;;4.69;63.16;99409.75;4937967;29;20059;-88
2022/11/02 03:38:47;;;;;;;10.88;4.68;;;;;;;4.44;63.61;99388.94;4954861;29;20138;-88
2022/11/02 03:41:16;;;;;;;14.32;4.88;;;;;;;4.45;63.48;99382.41;4937821;29;20579;-88
2022/11/02 03:43:45;;;;;;;15.07;4.95;;;;;;;4.57;63.73;99398.41;4937720;29;20051;-92
2022/11/02 03:46:15;;;;;;;12.70;4.97;;;;;;;4.37;63.73;99380.25;4937344;29;20524;-88
2022/11/02 03:48:46;;;;;;;14.95;4.55;;;;;;;4.52;63.78;99392.97;4937220;29;20110;-91
2022/11/02 03:51:19;;;;;;;19.08;4.70;;;;;;;4.44;63.98;99397.03;4954585;29;20532;-87
2022/11/02 03:54:05;;;;;;;16.77;4.57;;;;;;;4.16;65.15;99381.31;4922150;29;20039;-87
2022/11/02 03:56:38;;;;;;;13.80;4.95;;;;;;;4.17;65.14;99383.78;4937282;29;20050;-89
2022/11/02 03:59:04;;;;;;;19.02;4.95;;;;;;;4.33;66.18;99403.50;4921821;29;20049;-87
2022/11/02 04:01:37;;;;;;;16.67;5.57;;;;;;;4.24;66.11;99394.34;4953617;29;20098;-88
2022/11/02 04:04:04;;;;;;;13.77;5.20;;;;;;;4.11;66.49;99379.44;4954057;29;20531;-89
2022/11/02 04:06:32;;;;;;;18.58;4.97;;;;;;;4.15;66.61;99396.75;4921117;29;20042;-89
2022/11/02 04:08:59;;;;;;;13.63;4.80;;;;;;;4.06;66.94;99373.19;4952764;29;20046;-88
2022/11/02 04:19:50;;;;;;;12.82;5.38;;;;;;;4.18;67.57;99415.16;4933443;29;20043;-89
2022/11/02 04:25:19;;;;;;;14.82;6.13;;;;;;;4.17;67.10;99388.34;4934085;29;20043;-88
2022/11/02 04:28:08;;;;;;;14.80;6.25;;;;;;;3.93;67.75;99344.78;4922520;29;20094;-89
2022/11/02 04:30:48;;;;;;;17.50;5.53;;;;;;;4.30;67.75;99400.53;4952395;29;20163;-88
2022/11/02 04:33:33;;;;;;;12.73;5.80;;;;;;;4.18;67.11;99390.81;4936391;29;20554;-88
2022/11/02 04:36:17;;;;;;;13.27;5.13;;;;;;;4.34;67.02;99415.16;4936597;29;20032;-88
2022/11/02 04:38:48;;;;;;;18.23;5.32;;;;;;;4.32;66.81;99410.00;4917862;29;20138;-89
2022/11/02 04:41:41;;;;;;;14.65;4.75;;;;;;;4.19;66.67;99394.31;4919834;29;20055;-94
2022/11/02 04:44:28;;;;;;;12.88;4.70;;;;;;;4.07;66.69;99372.09;4922951;29;20049;-88
2022/11/02 04:46:59;;;;;;;13.10;5.93;;;;;;;4.12;66.32;99375.63;4953955;29;20047;-89
2022/11/02 04:49:29;;;;;;;13.13;5.00;;;;;;;4.07;65.90;99364.00;4905573;29;20101;-88
2022/11/02 04:51:56;;;;;;;13.13;4.13;;;;;;;4.33;65.97;99391.88;4937036;29;20417;-88
2022/11/02 04:54:23;;;;;;;9.88;3.92;;;;;;;4.31;65.69;99383.25;4952270;29;20456;-92
2022/11/02 04:56:56;;;;;;;12.88;3.92;;;;;;;4.32;65.38;99396.50;4913337;29;20031;-88
2022/11/02 04:59:24;;;;;;;12.98;3.45;;;;;;;4.14;65.04;99356.41;4936679;29;20409;-88
2022/11/02 05:01:51;;;;;;;10.55;3.60;;;;;;;4.16;65.06;99360.47;4936533;29;20138;-88
2022/11/02 05:04:18;;;;;;;16.47;3.67;;;;;;;4.19;64.67;99364.56;4952383;29;20047;-88
2022/11/02 05:06:46;;;;;;;13.43;4.07;;;;;;;4.18;64.99;99360.22;4954160;29;20451;-94
2022/11/02 05:09:12;;;;;;;10.98;3.60;;;;;;;4.26;65.48;99389.44;4953004;29;20082;-93
2022/11/02 05:11:42;;;;;;;10.18;3.80;;;;;;;4.34;64.37;99385.38;4920896;29;20043;-88
2022/11/02 05:14:08;;;;;;;9.13;3.60;;;;;;;4.08;65.43;99368.34;4919823;29;20047;-93
2022/11/02 05:16:35;;;;;;;14.23;5.10;;;;;;;4.24;66.23;99387.03;4927561;29;20071;-86
2022/11/02 05:19:02;;;;;;;10.68;5.97;;;;;;;4.22;66.90;99364.00;4952012;29;20291;-88
2022/11/02 05:21:29;;;;;;;15.65;6.10;;;;;;;4.20;67.12;99355.34;4952555;29;20122;-92
2022/11/02 05:23:57;;;;;;;19.10;7.43;;;;;;;4.33;67.22;99370.22;4918902;29;20063;-87
2022/11/02 05:26:23;;;;;;;19.08;8.05;;;;;;;4.22;67.37;99353.19;4919440;29;20591;-86
2022/11/02 05:28:51;;;;;;;22.58;7.53;;;;;;;4.41;67.06;99383.25;4935753;28;20042;-87
2022/11/02 05:31:18;;;;;;;19.98;8.40;;;;;;;4.45;67.19;99379.72;4940512;29;20032;-93
2022/11/02 05:33:45;;;;;;;28.60;9.10;;;;;;;4.32;67.23;99371.31;4955802;29;20648;-90
2022/11/02 05:36:16;;;;;;;21.50;8.73;;;;;;;4.43;66.90;99397.28;4924200;29;20050;-88
2022/11/02 05:38:45;;;;;;;25.90;9.32;;;;;;;4.28;67.31;99386.47;4940060;29;20555;-90
2022/11/02 05:41:12;;;;;;;24.60;8.88;;;;;;;4.32;66.89;99399.19;4955455;28;20413;-90
2022/11/02 05:43:41;;;;;;;22.63;9.10;;;;;;;4.33;67.08;99408.94;4922930;29;20047;-86
2022/11/02 05:46:13;;;;;;;38.85;9.18;;;;;;;4.32;67.63;99422.75;4956630;28;20043;-91
2022/11/02 05:48:40;;;;;;;21.17;9.90;;;;;;;4.34;68.77;99413.28;4939830;29;20547;-89
2022/11/02 05:51:08;;;;;;;76.75;12.60;;;;;;;4.44;67.98;99404.34;4920216;29;20050;-89
2022/11/02 05:53:37;;;;;;;29.67;9.63;;;;;;;4.51;67.47;99382.44;4922401;29;20035;-91
2022/11/02 05:56:05;;;;;;;32.15;10.32;;;;;;;4.53;66.75;99370.22;4957433;29;20567;-91
2022/11/02 05:58:32;;;;;;;25.35;10.10;;;;;;;4.79;66.62;99403.50;4942395;29;20050;-87
2022/11/02 06:01:04;;;;;;;91.10;12.50;;;;;;;4.82;66.29;99400.25;4956576;29;20509;-89
2022/11/02 06:03:31;;;;;;;143.27;16.42;;;;;;;4.59;66.56;99352.09;4956026;29;20045;-93
2022/11/02 06:05:59;;;;;;;29.38;11.35;;;;;;;4.67;66.28;99360.50;4938374;29;20487;-92
2022/11/02 06:08:25;;;;;;;29.50;10.95;;;;;;;4.86;66.28;99392.41;4939438;29;20073;-89
2022/11/02 06:10:53;;;;;;;52.40;14.07;;;;;;;4.84;66.38;99389.16;4937887;29;20038;-88
2022/11/02 06:13:19;;;;;;;27.98;11.32;;;;;;;4.81;66.08;99387.81;4922968;29;20043;-87
2022/11/02 06:15:45;;;;;;;30.88;11.48;;;;;;;4.77;65.94;99375.06;4937242;29;20027;-90
2022/11/02 06:18:12;;;;;;;1046.25;71.88;;;;;;;6.37;63.58;99384.97;4955081;29;20050;-87
2022/11/02 06:20:38;;;;;;;24.15;10.13;;;;;;;6.50;59.41;99352.53;4959204;29;20039;-89
2022/11/02 06:23:05;;;;;;;41.70;11.70;;;;;;;6.26;60.37;99360.63;4925844;29;20075;-91
2022/11/02 06:25:31;;;;;;;;;;;;;;;6.11;61.44;99398.72;4941384;28;20046;-90
2022/11/02 06:27:57;;;;;;;35.23;14.40;;;;;;;5.63;61.97;99361.25;4956611;28;19918;-92
2022/11/02 06:30:30;;;;;;;38.80;15.35;;;;;;;5.50;62.82;99359.16;4939506;29;20160;-90
2022/11/02 06:32:56;;;;;;;46.15;17.23;;;;;;;5.22;63.78;99374.16;4940532;29;20063;-90
2022/11/02 06:35:24;;;;;;;42.20;17.88;;;;;;;5.17;64.53;99382.31;4909885;28;20035;-86
2022/11/02 06:37:54;;;;;;;38.63;18.58;;;;;;;5.09;65.12;99394.50;4955346;28;20066;-88
2022/11/02 06:40:20;;;;;;;43.25;18.05;;;;;;;5.11;65.09;99376.09;4938388;28;20122;-87
2022/11/02 06:42:46;;;;;;;69.20;18.63;;;;;;;5.07;65.09;99377.75;4954738;29;20057;-92
2022/11/02 06:45:15;;;;;;;41.90;17.48;;;;;;;4.94;64.96;99395.38;4939143;29;20135;-88
2022/11/02 06:47:40;;;;;;;;;;;;;;;5.05;65.03;99398.88;4939428;29;20501;-93
2022/11/02 06:50:07;;;;;;;39.42;18.27;;;;;;;4.80;65.34;99377.25;4935139;29;19933;-90
2022/11/02 06:52:34;;;;;;;37.75;18.42;;;;;;;4.70;66.09;99397.00;4956585;29;20046;-90
2022/11/02 06:55:00;;;;;;;46.33;17.90;;;;;;;4.51;66.49;99367.00;4954797;29;20087;-94
2022/11/02 06:57:27;;;;;;;47.28;19.52;;;;;;;4.58;66.82;99401.91;4955309;29;20046;-87
2022/11/02 06:59:54;;;;;;;44.28;19.48;;;;;;;4.51;67.35;99399.47;4955048;29;20073;-85
2022/11/02 07:02:20;;;;;;;38.22;17.98;;;;;;;4.28;67.05;99343.19;4937551;29;20066;-88
2022/11/02 07:04:47;;;;;;;39.28;18.73;;;;;;;4.65;67.19;99402.44;4955639;29;20535;-90
2022/11/02 07:07:16;;;;;;;46.22;20.40;;;;;;;4.58;67.18;99388.38;4939931;29;20127;-87
2022/11/02 07:09:42;;;;;;;45.25;20.52;;;;;;;4.56;67.17;99385.13;4954314;29;20050;-84
2022/11/02 07:12:10;;;;;;;47.85;20.35;;;;;;;4.63;66.86;99386.47;4938292;29;20043;-85
2022/11/02 07:14:36;;;;;;;40.60;18.77;;;;;;;4.51;67.38;99393.25;4921917;29;20035;-86
2022/11/02 07:17:03;;;;;;;48.88;19.52;;;;;;;4.47;67.84;99407.34;4955681;29;20070;-88
2022/11/02 07:19:32;;;;;;;47.58;19.52;;;;;;;4.31;67.35;99365.09;4922441;29;20412;-92
2022/11/02 07:22:04;;;;;;;46.42;19.17;;;;;;;4.64;67.54;99404.34;4921975;29;20515;-88
2022/11/02 07:24:33;;;;;;;41.35;18.15;;;;;;;4.53;67.08;99386.47;4938714;29;20043;-87
2022/11/02 07:27:05;;;;;;;54.25;18.00;;;;;;;4.36;66.96;99373.22;4939368;29;20054;-93
2022/11/02 07:29:31;;;;;;;42.10;18.15;;;;;;;4.52;66.77;99401.09;4954648;29;20039;-87
2022/11/02 07:31:57;;;;;;;37.05;18.23;;;;;;;4.50;66.65;99400.53;4906384;29;20051;-94
2022/11/02 07:34:26;;;;;;;41.13;17.60;;;;;;;4.46;66.76;99396.75;4955040;29;20035;-89
2022/11/02 07:36:54;;;;;;;35.33;17.73;;;;;;;4.53;67.21;99412.72;4955624;29;20082;-89
2022/11/02 07:39:21;;;;;;;39.83;16.63;;;;;;;4.17;67.53;99370.25;4956815;29;20106;-93
2022/11/02 07:41:47;;;;;;;39.38;16.25;;;;;;;4.20;67.09;99375.09;4954216;29;20089;-88
2022/11/02 07:44:13;;;;;;;36.63;14.02;;;;;;;4.34;66.17;99404.31;4938127;29;20041;-88
2022/11/02 07:46:55;;;;;;;54.28;14.02;;;;;;;4.32;65.53;99401.09;4955603;29;20562;-90
2022/11/02 07:49:22;;;;;;;44.88;14.40;;;;;;;4.15;65.49;99385.91;4936542;29;20567;-87
2022/11/02 07:51:48;;;;;;;;;;;;;;;4.37;65.62;99430.84;4954162;28;20138;-87
2022/11/02 07:54:14;;;;;;;49.40;12.83;;;;;;;4.27;65.55;99420.00;4953067;29;20085;-86
2022/11/02 07:56:45;;;;;;;41.97;13.73;;;;;;;4.18;65.80;99415.16;4955239;29;20047;-87
2022/11/02 07:59:16;;;;;;;44.58;13.77;;;;;;;4.01;65.29;99387.53;4938112;29;20106;-87
2022/11/02 08:01:43;;;;;;;36.92;13.20;;;;;;;4.12;65.27;99408.09;4953700;29;20555;-87
2022/11/02 08:04:14;;;;;;;28.20;13.63;;;;;;;4.19;65.40;99424.88;4904310;29;20039;-89
2022/11/02 08:06:40;;;;;;;30.73;13.68;;;;;;;4.15;65.08;99414.88;4939653;29;20441;-91
2022/11/02 08:09:06;;;;;;;38.05;14.23;;;;;;;4.11;65.32;99411.09;4938430;29;20063;-93
2022/11/02 08:11:32;;;;;;;26.88;12.43;;;;;;;4.13;65.88;99422.44;4933868;29;20198;-95
2022/11/02 08:14:01;;;;;;;40.20;15.20;;;;;;;4.18;65.77;99419.75;4946819;29;20043;-92
2022/11/02 08:16:30;;;;;;;39.83;15.48;;;;;;;4.13;65.81;99400.78;4956012;29;20043;-90
2022/11/02 08:18:58;;;;;;;54.83;20.35;;;;;;;4.33;66.14;99414.34;4938229;29;20418;-85
2022/11/02 08:21:26;;;;;;;56.35;23.33;;;;;;;4.33;66.26;99410.81;4938112;29;20051;-90
2022/11/02 08:23:54;;;;;;;50.92;17.17;;;;;;;4.27;66.25;99418.13;4938247;29;20501;-86
2022/11/02 08:26:21;;;;;;;60.58;16.08;;;;;;;4.15;66.48;99391.34;4955982;29;20050;-87
2022/11/02 08:28:47;;;;;;;42.80;16.35;;;;;;;4.37;67.01;99417.31;4922369;29;20039;-83
2022/11/02 08:31:15;;;;;;;45.78;16.77;;;;;;;4.41;66.30;99415.72;4938247;29;20106;-89
2022/11/02 08:33:43;;;;;;;43.75;16.60;;;;;;;4.38;66.12;99400.81;4937475;29;20457;-85
2022/11/02 08:36:11;;;;;;;47.63;16.90;;;;;;;4.32;65.06;99392.97;4953554;29;20420;-84
2022/11/02 08:38:42;;;;;;;46.55;16.27;;;;;;;4.33;65.66;99408.13;4953563;29;20039;-84
2022/11/02 08:41:08;;;;;;;50.65;16.75;;;;;;;4.38;65.87;99405.44;4953733;29;20122;-91
2022/11/02 08:43:34;;;;;;;46.83;16.63;;;;;;;4.14;65.71;99365.38;4954488;29;20090;-89
2022/11/02 08:46:01;;;;;;;49.00;17.77;;;;;;;4.38;65.90;99387.28;4953010;29;20043;-86
2022/11/02 08:48:29;;;;;;;44.00;17.88;;;;;;;4.49;65.78;99398.94;4940308;29;20043;-94
2022/11/02 08:50:55;;;;;;;46.00;18.40;;;;;;;4.57;65.05;99416.50;4937985;29;20052;-95
2022/11/02 08:53:24;;;;;;;47.72;16.20;;;;;;;4.46;64.49;99385.94;4934885;29;20123;-85
2022/11/02 08:55:51;;;;;;;;;;;;;;;4.69;64.04;99414.34;4921063;29;20036;-93
2022/11/02 08:58:17;;;;;;;32.58;14.10;;;;;;;4.65;63.78;99388.91;4954920;28;19930;-93
2022/11/02 09:00:46;;;;;;;36.17;14.68;;;;;;;4.71;63.35;99391.34;4938400;29;20052;-87
2022/11/02 09:03:14;;;;;;;33.00;15.93;;;;;;;4.88;63.37;99418.13;4937086;29;20432;-90
2022/11/02 09:05:44;;;;;;;34.15;14.38;;;;;;;4.80;63.15;99410.56;4936256;29;20039;-85
2022/11/02 09:08:13;;;;;;;34.05;12.60;;;;;;;4.55;63.05;99386.22;4952415;29;20040;-92
2022/11/02 09:10:39;;;;;;;46.00;15.38;;;;;;;4.63;63.53;99397.28;4937774;29;20044;-91
2022/11/02 09:13:07;;;;;;;39.80;14.10;;;;;;;4.48;62.84;99373.75;4937199;29;20039;-91
2022/11/02 09:15:39;;;;;;;48.45;16.17;;;;;;;4.62;63.22;99392.16;4934978;29;20039;-88
2022/11/02 09:18:08;;;;;;;53.00;15.90;;;;;;;4.48;64.02;99368.34;4937157;29;20043;-90
2022/11/02 09:20:35;;;;;;;41.75;15.35;;;;;;;4.92;63.16;99421.09;4939046;29;20055;-91
2022/11/02 09:23:03;;;;;;;37.90;15.23;;;;;;;4.81;62.98;99389.72;4937958;29;20390;-92
2022/11/02 09:25:31;;;;;;;46.40;15.73;;;;;;;4.63;63.30;99380.25;4938680;29;20051;-85
2022/11/02 09:27:58;;;;;;;38.53;14.27;;;;;;;4.85;63.13;99415.97;4936630;29;20076;-84
2022/11/02 09:30:27;;;;;;;42.25;15.43;;;;;;;4.81;62.98;99393.22;4936901;29;20055;-88
2022/11/02 09:33:10;;;;;;;30.08;14.38;;;;;;;4.85;62.93;99409.75;4938772;29;20051;-92
2022/11/02 09:35:47;;;;;;;31.30;13.20;;;;;;;4.61;62.99;99377.81;4917466;29;20537;-86
2022/11/02 09:38:17;;;;;;;35.55;13.10;;;;;;;4.57;63.29;99387.56;4945750;29;20438;-88
2022/11/02 09:41:10;;;;;;;35.30;13.10;;;;;;;4.66;63.06;99407.56;4924929;29;20047;-87
2022/11/02 09:43:59;;;;;;;38.90;13.18;;;;;;;4.77;63.23;99415.69;4909842;29;20058;-87
2022/11/02 09:46:36;;;;;;;36.63;12.98;;;;;;;4.67;63.12;99405.72;4938966;29;20055;-86
2022/11/02 09:49:24;;;;;;;34.13;12.95;;;;;;;4.45;64.16;99341.00;4917747;29;20047;-90
2022/11/02 09:51:57;;;;;;;29.30;12.70;;;;;;;4.88;63.39;99392.94;4932381;29;20063;-94
2022/11/02 09:54:41;;;;;;;24.58;13.23;;;;;;;5.03;62.50;99395.59;4935599;29;20123;-92
2022/11/02 09:57:14;;;;;;;36.83;13.25;;;;;;;4.51;63.32;99339.13;4921496;29;20036;-92
2022/11/02 09:59:42;;;;;;;48.60;14.55;;;;;;;4.84;63.27;99381.03;4937250;29;20575;-92
2022/11/02 10:02:27;;;;;;;39.13;16.30;;;;;;;4.59;63.80;99346.69;4919377;29;20047;-85
2022/11/02 10:05:23;;;;;;;39.17;15.93;;;;;;;4.94;62.78;99395.38;4937767;29;20060;-89
2022/11/02 10:07:49;;;;;;;43.80;15.57;;;;;;;4.91;62.36;99395.13;4917194;29;20044;-89
2022/11/02 10:10:36;;;;;;;34.30;15.52;;;;;;;4.94;61.94;99389.16;4933418;29;20429;-90
2022/11/02 10:13:17;;;;;;;32.70;14.70;;;;;;;4.91;62.35;99398.63;4937682;28;20406;-91
2022/11/02 10:16:10;;;;;;;32.92;13.18;;;;;;;4.56;62.90;99363.47;4923646;29;20031;-92
2022/11/02 10:18:48;;;;;;;28.38;12.57;;;;;;;4.56;62.18;99358.03;4936810;29;20046;-90
2022/11/02 10:21:20;;;;;;;42.40;14.00;;;;;;;4.79;62.76;99400.00;4938350;28;20046;-90
2022/11/02 10:23:59;;;;;;;29.08;12.48;;;;;;;4.67;62.65;99392.16;4926532;29;20405;-91
2022/11/02 10:26:31;;;;;;;28.23;11.55;;;;;;;4.35;62.78;99343.72;4936783;28;20130;-90
2022/11/02 10:29:05;;;;;;;39.97;13.45;;;;;;;4.44;62.90;99369.16;4936483;28;20035;-91
2022/11/02 10:31:33;;;;;;;26.42;12.13;;;;;;;4.17;62.98;99356.72;4948815;29;20505;-92
2022/11/02 10:34:14;;;;;;;36.08;13.82;;;;;;;4.42;63.24;99384.84;4942254;29;20494;-86
2022/11/02 10:37:01;;;;;;;33.20;13.38;;;;;;;4.35;62.92;99368.09;4938378;28;20050;-87
2022/11/02 10:39:50;;;;;;;24.30;13.13;;;;;;;4.64;63.01;99408.97;4938017;28;20159;-92
2022/11/02 10:42:29;;;;;;;33.55;13.02;;;;;;;4.55;63.15;99416.00;4934849;29;20047;-90
2022/11/02 10:45:13;;;;;;;36.92;12.13;;;;;;;4.48;63.11;99400.03;4953820;28;20035;-86
2022/11/02 10:48:02;;;;;;;26.75;11.95;;;;;;;4.34;62.83;99398.91;4950891;29;20110;-89
2022/11/02 10:50:30;;;;;;;33.65;12.77;;;;;;;4.38;63.62;99416.25;4933178;28;20058;-88
2022/11/02 10:53:01;;;;;;;26.08;11.82;;;;;;;3.88;63.11;99348.28;4951594;28;20592;-93
2022/11/02 10:56:00;;;;;;;31.42;11.57;;;;;;;4.23;63.49;99419.75;4951246;28;20039;-92
2022/11/02 10:58:31;;;;;;;29.17;11.65;;;;;;;4.21;63.25;99424.63;4942995;28;20178;-88
2022/11/02 11:01:07;;;;;;;24.30;11.43;;;;;;;4.04;63.71;99392.41;4953742;28;20035;-87
2022/11/02 11:03:50;;;;;;;32.65;12.32;;;;;;;3.78;63.42;99344.75;4961194;28;20471;-90
2022/11/02 11:06:17;;;;;;;28.48;11.70;;;;;;;4.00;63.27;99381.28;4915156;28;20039;-88
2022/11/02 11:08:52;;;;;;;29.33;12.73;;;;;;;3.91;63.11;99374.81;4933096;29;20070;-91
2022/11/02 11:11:37;;;;;;;26.15;12.52;;;;;;;3.83;62.80;99363.69;4919546;29;20124;-90
2022/11/02 11:14:16;;;;;;;28.20;12.63;;;;;;;3.79;62.91;99366.13;4922735;28;20046;-89
2022/11/02 11:16:48;;;;;;;32.30;12.55;;;;;;;3.98;62.66;99378.06;4915660;28;20080;-91
2022/11/02 11:19:38;;;;;;;28.80;12.73;;;;;;;4.10;62.48;99396.72;4945623;28;20168;-90
2022/11/02 11:22:46;;;;;;;26.48;12.32;;;;;;;3.87;62.14;99349.34;4920360;29;20420;-91
2022/11/02 11:25:26;;;;;;;25.35;11.07;;;;;;;3.88;61.86;99347.47;4847578;29;20056;-95
2022/11/02 11:27:57;;;;;;;38.53;12.52;;;;;;;3.74;62.41;99331.78;4846843;29;20146;-95
2022/11/02 11:30:33;;;;;;;32.42;12.43;;;;;;;3.72;62.04;99320.41;4884361;28;20058;-92
2022/11/02 11:33:02;;;;;;;29.67;12.48;;;;;;;4.24;61.87;99405.97;4957065;28;20057;-89
2022/11/02 11:35:38;;;;;;;43.83;13.02;;;;;;;3.79;62.03;99335.56;4952754;28;20394;-91
2022/11/02 11:38:14;;;;;;;39.65;13.25;;;;;;;3.89;61.91;99363.44;4938529;28;20187;-95
2022/11/02 11:40:52;;;;;;;34.33;12.88;;;;;;;3.92;61.74;99381.81;4950932;28;20047;-94
2022/11/02 11:43:24;;;;;;;34.42;12.73;;;;;;;3.92;61.73;99381.81;4938181;28;20413;-90
2022/11/02 11:46:02;;;;;;;29.33;12.63;;;;;;;4.08;61.58;99411.63;4952217;28;20039;-90
2022/11/02 11:48:46;;;;;;;41.83;13.27;;;;;;;3.52;61.78;99323.88;4952674;28;20044;-92
2022/11/02 11:51:30;;;;;;;33.03;12.10;;;;;;;4.12;61.72;99408.09;4937846;29;20062;-94
2022/11/02 11:54:32;;;;;;;50.42;13.50;;;;;;;4.16;61.63;99402.97;4935986;28;20043;-88
2022/11/02 11:57:20;;;;;;;39.40;12.63;;;;;;;4.24;61.21;99416.78;4919545;29;20102;-90
2022/11/02 11:59:49;;;;;;;44.83;13.98;;;;;;;4.07;61.35;99389.13;4930822;28;20049;-92
2022/11/02 12:02:34;;;;;;;41.72;12.80;;;;;;;4.04;61.39;99383.47;4930750;28;20051;-91
2022/11/02 12:05:17;;;;;;;51.17;13.68;;;;;;;3.91;60.76;99361.28;4936898;29;20664;-89
2022/11/02 12:08:02;;;;;;;44.88;12.93;;;;;;;4.21;60.66;99414.63;4938651;29;20035;-89